createdAt,value
2018-07-26T00:01:05.282Z,10.00
2018-07-26T00:03:34.968Z,9.07
2018-07-26T00:06:04.837Z,9.03
2018-07-26T00:08:34.543Z,12.97
2018-07-26T00:11:04.310Z,9.27
2018-07-26T00:13:34.730Z,11.37
2018-07-26T00:16:04.630Z,8.90
2018-07-26T00:18:34.833Z,10.00
2018-07-26T00:21:05.279Z,8.90
2018-07-26T00:23:35.077Z,9.03
2018-07-26T00:26:04.967Z,9.63
2018-07-26T00:28:34.632Z,8.23
2018-07-26T00:31:04.858Z,11.00
2018-07-26T00:33:34.523Z,8.80
2018-07-26T00:36:04.338Z,11.87
2018-07-26T00:38:34.668Z,8.83
2018-07-26T00:41:04.419Z,12.40
2018-07-26T00:43:34.163Z,11.10
2018-07-26T00:46:04.410Z,9.63
2018-07-26T00:48:35.293Z,11.47
2018-07-26T00:51:04.909Z,10.93
2018-07-26T00:53:34.748Z,8.93
2018-07-26T00:56:04.377Z,11.80
2018-07-26T00:58:34.188Z,9.03
2018-07-26T01:01:03.779Z,12.43
2018-07-26T01:03:33.442Z,10.67
2018-07-26T01:06:03.051Z,9.93
2018-07-26T01:08:32.875Z,9.50
2018-07-26T01:11:03.261Z,10.30
2018-07-26T01:13:32.859Z,9.33
2018-07-26T01:16:02.499Z,10.30
2018-07-26T01:18:32.941Z,10.07
2018-07-26T01:21:02.909Z,9.70
2018-07-26T01:23:32.476Z,9.07
2018-07-26T01:26:01.776Z,10.87
2018-07-26T01:28:31.612Z,9.13
2018-07-26T01:31:01.279Z,13.00
2018-07-26T01:33:31.034Z,9.63
2018-07-26T01:36:01.352Z,12.40
2018-07-26T01:38:30.911Z,13.83
2018-07-26T01:41:00.580Z,12.53
2018-07-26T01:43:56.422Z,13.73
2018-07-26T01:46:26.951Z,12.33
2018-07-26T01:48:56.556Z,12.77
2018-07-26T01:51:26.891Z,13.40
2018-07-26T01:53:56.488Z,13.83
2018-07-26T01:56:26.028Z,12.37
2018-07-26T01:58:55.578Z,13.17
2018-07-26T02:01:25.223Z,12.20
2018-07-26T02:03:55.955Z,11.77
2018-07-26T02:06:26.529Z,15.23
2018-07-26T02:08:56.311Z,13.30
2018-07-26T02:11:26.040Z,13.43
2018-07-26T02:13:55.957Z,12.07
2018-07-26T02:16:26.175Z,14.87
2018-07-26T02:18:55.955Z,16.53
2018-07-26T02:21:25.784Z,16.40
2018-07-26T02:23:55.317Z,13.17
2018-07-26T02:26:24.960Z,11.13
2018-07-26T02:28:54.786Z,11.93
2018-07-26T02:31:25.068Z,11.80
2018-07-26T02:33:54.676Z,16.47
2018-07-26T02:36:24.370Z,16.33
2018-07-26T02:38:53.995Z,15.00
2018-07-26T02:41:24.331Z,13.63
2018-07-26T02:43:54.096Z,14.90
2018-07-26T02:46:23.775Z,13.20
2018-07-26T02:48:53.453Z,14.60
2018-07-26T02:51:24.033Z,18.47
2018-07-26T02:53:54.008Z,15.90
2018-07-26T02:56:23.753Z,19.20
2018-07-26T02:58:53.353Z,18.93
2018-07-26T03:01:22.976Z,15.60
2018-07-26T03:03:52.684Z,17.27
2018-07-26T03:06:22.396Z,15.47
2018-07-26T03:08:51.971Z,16.33
2018-07-26T03:11:21.612Z,17.53
2018-07-26T03:13:51.137Z,14.73
2018-07-26T03:16:20.799Z,19.63
2018-07-26T03:18:51.178Z,19.13
2018-07-26T03:21:20.805Z,15.90
2018-07-26T03:23:50.738Z,17.80
2018-07-26T03:26:20.340Z,14.13
2018-07-26T03:28:50.194Z,16.13
2018-07-26T03:31:19.744Z,15.87
2018-07-26T03:33:49.330Z,17.20
2018-07-26T03:36:19.458Z,15.87
2018-07-26T03:38:49.094Z,15.47
2018-07-26T03:41:18.837Z,16.37
2018-07-26T03:43:48.428Z,16.43
2018-07-26T03:46:17.758Z,15.43
2018-07-26T03:48:47.428Z,15.60
2018-07-26T03:51:17.321Z,16.93
2018-07-26T03:53:46.868Z,17.53
2018-07-26T03:56:16.635Z,14.83
2018-07-26T03:58:47.256Z,15.20
2018-07-26T04:01:16.941Z,14.57
2018-07-26T04:03:46.541Z,15.63
2018-07-26T04:06:16.177Z,13.70
2018-07-26T04:08:46.445Z,14.20
2018-07-26T04:11:16.011Z,15.63
2018-07-26T04:13:45.609Z,13.87
2018-07-26T04:16:15.175Z,15.40
2018-07-26T04:18:44.879Z,13.40
2018-07-26T04:21:14.534Z,13.37
2018-07-26T04:23:44.151Z,16.93
2018-07-26T04:26:13.706Z,15.53
2018-07-26T04:28:43.283Z,13.37
2018-07-26T04:31:12.972Z,12.53
2018-07-26T04:33:42.526Z,14.60
2018-07-26T04:36:12.190Z,13.33
2018-07-26T04:38:42.535Z,14.80
2018-07-26T04:41:12.151Z,13.27
2018-07-26T04:43:41.776Z,15.43
2018-07-26T04:46:11.231Z,15.83
2018-07-26T04:48:40.807Z,15.37
2018-07-26T04:51:10.719Z,15.63
2018-07-26T04:53:40.327Z,14.70
2018-07-26T04:56:09.911Z,15.87
2018-07-26T04:58:39.504Z,16.20
2018-07-26T05:01:09.094Z,15.53
2018-07-26T05:03:38.844Z,16.30
2018-07-26T05:06:08.453Z,18.37
2018-07-26T05:08:38.188Z,15.00
2018-07-26T05:11:07.820Z,16.33
2018-07-26T05:13:37.667Z,15.33
2018-07-26T05:16:07.404Z,14.27
2018-07-26T05:18:37.060Z,16.40
2018-07-26T05:21:06.659Z,15.80
2018-07-26T05:23:36.337Z,16.20
2018-07-26T05:26:06.354Z,17.20
2018-07-26T05:28:35.984Z,15.60
2018-07-26T05:31:05.667Z,17.57
2018-07-26T05:33:35.569Z,22.77
2018-07-26T05:36:05.181Z,16.37
2018-07-26T05:38:34.775Z,18.33
2018-07-26T05:41:04.406Z,14.80
2018-07-26T05:43:34.140Z,17.57
2018-07-26T05:46:04.470Z,18.33
2018-07-26T05:48:34.125Z,15.47
2018-07-26T05:51:04.186Z,17.20
2018-07-26T05:53:33.869Z,14.47
2018-07-26T05:56:03.634Z,14.03
2018-07-26T05:58:33.356Z,13.28
2018-07-26T06:01:03.012Z,12.60
2018-07-26T06:03:32.703Z,23.67
2018-07-26T06:06:02.400Z,12.88
2018-07-26T06:08:32.439Z,14.43
2018-07-26T06:11:02.280Z,12.15
2018-07-26T06:13:32.016Z,10.68
2018-07-26T06:16:01.868Z,13.80
2018-07-26T06:18:31.457Z,14.70
2018-07-26T06:21:01.150Z,12.15
2018-07-26T06:23:30.797Z,10.80
2018-07-26T06:26:00.480Z,13.18
2018-07-26T06:28:30.293Z,12.63
2018-07-26T06:31:00.062Z,11.03
2018-07-26T06:33:32.829Z,10.85
2018-07-26T06:36:02.444Z,13.68
2018-07-26T06:38:32.055Z,12.63
2018-07-26T06:41:01.781Z,9.03
2018-07-26T06:43:31.440Z,11.57
2018-07-26T06:46:01.031Z,8.23
2018-07-26T06:48:30.773Z,8.85
2018-07-26T06:51:00.468Z,12.28
2018-07-26T06:53:30.936Z,7.47
2018-07-26T06:56:00.279Z,7.08
2018-07-26T06:58:29.912Z,8.85
2018-07-26T07:00:59.572Z,6.30
2018-07-26T07:03:29.269Z,8.90
2018-07-26T07:05:59.530Z,5.10
2018-07-26T07:08:29.182Z,6.37
2018-07-26T07:10:59.383Z,4.75
2018-07-26T07:13:29.806Z,5.60
2018-07-26T07:15:59.599Z,6.28
2018-07-26T07:18:29.343Z,5.42
2018-07-26T07:20:59.052Z,8.05
2018-07-26T07:23:28.846Z,7.70
2018-07-26T07:25:58.550Z,8.70
2018-07-26T07:28:28.208Z,7.50
2018-07-26T07:31:00.094Z,5.22
2018-07-26T07:33:29.793Z,13.95
2018-07-26T07:35:59.543Z,5.33
2018-07-26T07:38:29.202Z,6.60
2018-07-26T07:40:58.944Z,6.47
2018-07-26T07:43:28.864Z,9.18
2018-07-26T07:45:59.199Z,7.50
2018-07-26T07:48:28.850Z,7.40
2018-07-26T07:50:58.602Z,5.70
2018-07-26T07:53:28.837Z,5.45
2018-07-26T07:55:58.535Z,5.12
2018-07-26T07:58:28.748Z,7.17
2018-07-26T08:00:58.452Z,6.85
2018-07-26T08:03:28.094Z,6.85
2018-07-26T08:05:57.763Z,6.35
2018-07-26T08:08:27.497Z,7.25
2018-07-26T08:10:57.225Z,8.38
2018-07-26T08:13:27.482Z,6.40
2018-07-26T08:15:57.272Z,5.95
2018-07-26T08:18:27.758Z,3.90
2018-07-26T08:20:58.153Z,6.72
2018-07-26T08:23:27.914Z,7.53
2018-07-26T08:25:57.513Z,7.03
2018-07-26T08:28:27.439Z,5.85
2018-07-26T08:30:57.683Z,4.08
2018-07-26T08:33:27.771Z,5.90
2018-07-26T08:35:57.430Z,5.58
2018-07-26T08:38:30.521Z,5.58
2018-07-26T08:41:01.203Z,3.50
2018-07-26T08:43:30.828Z,6.30
2018-07-26T08:46:00.495Z,5.75
2018-07-26T08:48:30.272Z,4.33
2018-07-26T08:50:59.891Z,5.47
2018-07-26T08:53:29.610Z,5.00
2018-07-26T08:55:59.361Z,4.03
2018-07-26T08:58:29.032Z,3.72
2018-07-26T09:00:58.856Z,3.52
2018-07-26T09:03:28.790Z,3.62
2018-07-26T09:05:58.542Z,5.08
2018-07-26T09:08:28.390Z,3.98
2018-07-26T09:10:58.255Z,5.30
2018-07-26T09:13:27.991Z,3.70
2018-07-26T09:15:58.140Z,3.35
2018-07-26T09:18:27.999Z,3.80
2018-07-26T09:20:57.901Z,5.08
2018-07-26T09:23:28.180Z,2.90
2018-07-26T09:25:57.971Z,7.20
2018-07-26T09:28:27.693Z,6.60
2018-07-26T09:30:57.493Z,3.83
2018-07-26T09:33:27.317Z,6.00
2018-07-26T09:35:57.765Z,5.10
2018-07-26T09:38:27.531Z,2.95
2018-07-26T09:40:57.395Z,6.15
2018-07-26T09:43:27.077Z,8.30
2018-07-26T09:45:56.777Z,7.10
2018-07-26T09:48:27.170Z,5.00
2018-07-26T09:50:57.226Z,2.83
2018-07-26T09:53:26.948Z,5.28
2018-07-26T09:55:56.766Z,5.72
2018-07-26T09:58:26.601Z,5.67
2018-07-26T10:01:01.563Z,6.28
2018-07-26T10:03:31.396Z,4.55
2018-07-26T10:06:01.364Z,5.17
2018-07-26T10:08:31.134Z,3.75
2018-07-26T10:11:00.931Z,2.72
2018-07-26T10:13:30.635Z,3.12
2018-07-26T10:16:00.464Z,3.30
2018-07-26T10:18:30.909Z,4.90
2018-07-26T10:21:00.616Z,3.05
2018-07-26T10:23:30.241Z,6.35
2018-07-26T10:26:00.205Z,2.35
2018-07-26T10:28:30.241Z,2.42
2018-07-26T10:31:00.041Z,2.50
2018-07-26T10:33:29.727Z,4.83
2018-07-26T10:35:59.491Z,2.87
2018-07-26T10:38:29.107Z,4.05
2018-07-26T10:40:58.881Z,7.92
2018-07-26T10:43:28.509Z,3.52
2018-07-26T10:45:58.153Z,3.77
2018-07-26T10:48:27.846Z,3.98
2018-07-26T10:50:57.517Z,2.77
2018-07-26T10:53:27.232Z,5.60
2018-07-26T10:55:57.644Z,3.22
2018-07-26T10:58:27.391Z,3.27
2018-07-26T11:00:57.109Z,5.58
2018-07-26T11:03:26.740Z,5.10
2018-07-26T11:05:56.335Z,2.98
2018-07-26T11:08:26.024Z,3.02
2018-07-26T11:10:55.801Z,5.37
2018-07-26T11:13:25.467Z,3.92
2018-07-26T11:15:55.083Z,2.47
2018-07-26T11:18:24.829Z,3.50
2018-07-26T11:20:54.615Z,3.12
2018-07-26T11:23:24.236Z,2.47
2018-07-26T11:25:53.853Z,3.85
2018-07-26T11:28:23.482Z,2.90
2018-07-26T11:30:53.247Z,3.85
2018-07-26T11:33:22.870Z,2.75
2018-07-26T11:35:52.512Z,5.42
2018-07-26T11:38:22.139Z,3.12
2018-07-26T11:40:51.762Z,2.80
2018-07-26T11:43:21.419Z,2.60
2018-07-26T11:45:51.663Z,5.03
2018-07-26T11:48:24.096Z,6.50
2018-07-26T11:50:53.796Z,3.55
2018-07-26T11:53:23.450Z,5.67
2018-07-26T11:55:53.124Z,5.05
2018-07-26T11:58:22.811Z,3.60
2018-07-26T12:00:52.512Z,4.08
2018-07-26T12:03:22.307Z,3.42
2018-07-26T12:05:52.779Z,3.52
2018-07-26T12:08:22.418Z,6.10
2018-07-26T12:10:52.112Z,3.45
2018-07-26T12:13:21.738Z,4.83
2018-07-26T12:15:51.531Z,2.90
2018-07-26T12:18:21.125Z,5.47
2018-07-26T12:20:50.827Z,3.35
2018-07-26T12:23:20.399Z,5.15
2018-07-26T12:25:49.968Z,3.75
2018-07-26T12:28:19.693Z,2.65
2018-07-26T12:30:49.946Z,5.60
2018-07-26T12:33:19.567Z,5.42
2018-07-26T12:35:49.232Z,5.58
2018-07-26T12:38:18.872Z,3.75
2018-07-26T12:40:48.820Z,4.08
2018-07-26T12:43:18.476Z,2.52
2018-07-26T12:45:48.123Z,5.42
2018-07-26T12:48:17.880Z,3.75
2018-07-26T12:50:47.562Z,2.52
2018-07-26T12:53:17.230Z,5.53
2018-07-26T12:55:47.561Z,3.00
2018-07-26T12:58:17.200Z,2.42
2018-07-26T13:00:47.103Z,3.80
2018-07-26T13:03:16.976Z,4.67
2018-07-26T13:05:47.216Z,2.50
2018-07-26T13:08:16.954Z,4.58
2018-07-26T13:10:46.589Z,4.35
2018-07-26T13:13:16.321Z,2.60
2018-07-26T13:15:46.203Z,4.92
2018-07-26T13:18:15.903Z,3.00
2018-07-26T13:20:45.583Z,4.45
2018-07-26T13:23:15.296Z,3.85
2018-07-26T13:25:44.929Z,3.25
2018-07-26T13:28:14.769Z,7.97
2018-07-26T13:30:44.510Z,3.02
2018-07-26T13:33:14.269Z,3.42
2018-07-26T13:35:43.926Z,3.20
2018-07-26T13:38:13.792Z,3.87
2018-07-26T13:40:43.643Z,3.35
2018-07-26T13:43:13.342Z,4.78
2018-07-26T13:45:43.045Z,2.50
2018-07-26T13:48:12.733Z,3.77
2018-07-26T13:50:42.635Z,6.37
2018-07-26T13:53:12.321Z,3.22
2018-07-26T13:55:42.058Z,3.15
2018-07-26T13:58:11.880Z,4.42
2018-07-26T14:00:41.649Z,2.80
2018-07-26T14:03:11.252Z,4.53
2018-07-26T14:05:41.169Z,6.20
2018-07-26T14:08:10.837Z,4.53
2018-07-26T14:10:40.520Z,2.98
2018-07-26T14:13:10.150Z,3.33
2018-07-26T14:15:39.790Z,2.70
2018-07-26T14:18:09.480Z,3.47
2018-07-26T14:20:39.501Z,2.67
2018-07-26T14:23:13.077Z,4.53
2018-07-26T14:25:42.934Z,4.08
2018-07-26T14:28:12.650Z,2.72
2018-07-26T14:30:42.877Z,3.75
2018-07-26T14:33:12.632Z,4.47
2018-07-26T14:35:42.330Z,4.55
2018-07-26T14:38:12.031Z,4.10
2018-07-26T14:40:41.660Z,5.42
2018-07-26T14:43:11.264Z,5.97
2018-07-26T14:45:40.884Z,4.97
2018-07-26T14:48:10.643Z,4.67
2018-07-26T14:50:40.273Z,3.83
2018-07-26T14:53:09.930Z,4.42
2018-07-26T14:55:39.655Z,4.67
2018-07-26T14:58:09.489Z,6.55
2018-07-26T15:00:40.120Z,2.87
2018-07-26T15:03:09.830Z,5.40
2018-07-26T15:05:39.533Z,5.70
2018-07-26T15:08:09.268Z,2.67
2018-07-26T15:10:39.005Z,4.97
2018-07-26T15:13:08.631Z,3.58
2018-07-26T15:15:38.261Z,8.73
2018-07-26T15:18:07.861Z,6.33
2018-07-26T15:20:37.609Z,6.70
2018-07-26T15:23:07.508Z,3.08
2018-07-26T15:25:37.277Z,3.15
2018-07-26T15:28:06.987Z,3.42
2018-07-26T15:30:37.188Z,4.10
2018-07-26T15:33:07.013Z,5.95
2018-07-26T15:35:36.771Z,3.60
2018-07-26T15:38:06.468Z,8.48
2018-07-26T15:40:36.088Z,5.10
2018-07-26T15:43:05.737Z,6.37
2018-07-26T15:45:35.398Z,4.12
2018-07-26T15:48:06.064Z,3.95
2018-07-26T15:50:36.132Z,3.95
2018-07-26T15:53:05.862Z,2.40
2018-07-26T15:55:35.514Z,2.52
2018-07-26T15:58:05.148Z,4.40
2018-07-26T16:00:34.878Z,3.77
2018-07-26T16:03:04.581Z,3.45
2018-07-26T16:05:34.249Z,2.62
2018-07-26T16:08:04.096Z,4.50
2018-07-26T16:10:33.704Z,4.60
2018-07-26T16:13:03.320Z,2.50
2018-07-26T16:15:32.922Z,3.02
2018-07-26T16:18:02.580Z,3.83
2018-07-26T16:20:39.026Z,3.27
2018-07-26T16:23:08.759Z,5.17
2018-07-26T16:25:38.404Z,6.22
2018-07-26T16:28:08.177Z,3.87
2018-07-26T16:30:39.905Z,2.37
2018-07-26T16:33:09.742Z,2.60
2018-07-26T16:35:39.487Z,3.33
2018-07-26T16:38:09.146Z,2.60
2018-07-26T16:40:38.782Z,4.53
2018-07-26T16:43:08.447Z,6.55
2018-07-26T16:45:41.180Z,5.70
2018-07-26T16:48:11.072Z,2.83
2018-07-26T16:50:40.804Z,2.77
2018-07-26T16:53:10.998Z,3.37
2018-07-26T16:55:40.812Z,4.95
2018-07-26T16:58:10.655Z,3.10
2018-07-26T17:00:40.393Z,3.47
2018-07-26T17:03:10.691Z,3.00
2018-07-26T17:05:40.833Z,3.72
2018-07-26T17:08:10.988Z,3.25
2018-07-26T17:10:40.613Z,4.22
2018-07-26T17:13:11.043Z,2.70
2018-07-26T17:15:40.731Z,3.52
2018-07-26T17:18:10.579Z,7.08
2018-07-26T17:20:40.303Z,3.35
2018-07-26T17:23:10.028Z,6.50
2018-07-26T17:25:39.782Z,4.40
2018-07-26T17:28:09.577Z,5.37
2018-07-26T17:30:39.906Z,4.60
2018-07-26T17:33:09.689Z,4.87
2018-07-26T17:35:39.605Z,4.72
2018-07-26T17:38:09.218Z,3.70
2018-07-26T17:40:39.560Z,2.83
2018-07-26T17:43:09.193Z,3.47
2018-07-26T17:45:38.930Z,4.25
2018-07-26T17:48:08.623Z,5.22
2018-07-26T17:50:38.488Z,3.87
2018-07-26T17:53:08.212Z,6.22
2018-07-26T17:55:38.064Z,5.45
2018-07-26T17:58:07.890Z,3.15
2018-07-26T18:00:37.629Z,3.30
2018-07-26T18:03:07.419Z,4.37
2018-07-26T18:05:37.137Z,7.05
2018-07-26T18:08:07.079Z,4.40
2018-07-26T18:10:36.818Z,4.58
2018-07-26T18:13:06.894Z,5.97
2018-07-26T18:15:36.806Z,5.20
2018-07-26T18:18:06.566Z,4.28
2018-07-26T18:20:36.433Z,5.13
2018-07-26T18:23:06.100Z,5.00
2018-07-26T18:25:36.297Z,6.33
2018-07-26T18:28:06.225Z,5.13
2018-07-26T18:30:36.290Z,5.07
2018-07-26T18:33:06.064Z,2.77
2018-07-26T18:35:36.138Z,5.37
2018-07-26T18:38:06.264Z,4.97
2018-07-26T18:40:35.973Z,5.50
2018-07-26T18:43:05.754Z,3.90
2018-07-26T18:45:35.638Z,3.30
2018-07-26T18:48:05.486Z,4.10
2018-07-26T18:50:35.321Z,6.30
2018-07-26T18:53:05.562Z,4.47
2018-07-26T18:55:35.577Z,3.33
2018-07-26T18:58:05.292Z,6.00
2018-07-26T19:00:34.949Z,5.40
2018-07-26T19:03:04.693Z,8.07
2018-07-26T19:05:34.630Z,5.60
2018-07-26T19:08:04.579Z,5.60
2018-07-26T19:10:34.243Z,4.10
2018-07-26T19:13:04.082Z,8.83
2018-07-26T19:15:33.742Z,4.83
2018-07-26T19:18:03.498Z,3.40
2018-07-26T19:20:33.259Z,8.97
2018-07-26T19:23:03.070Z,5.20
2018-07-26T19:25:32.825Z,5.40
2018-07-26T19:28:02.690Z,5.83
2018-07-26T19:30:32.411Z,4.10
2018-07-26T19:33:02.106Z,6.70
2018-07-26T19:35:31.937Z,6.10
2018-07-26T19:38:01.567Z,6.50
2018-07-26T19:40:31.426Z,3.50
2018-07-26T19:43:01.766Z,3.73
2018-07-26T19:45:32.119Z,6.90
2018-07-26T19:48:02.034Z,5.67
2018-07-26T19:50:31.728Z,7.23
2018-07-26T19:53:01.501Z,5.83
2018-07-26T19:55:31.781Z,6.23
2018-07-26T19:58:01.853Z,6.33
2018-07-26T20:00:32.243Z,7.63
2018-07-26T20:03:02.315Z,7.27
2018-07-26T20:05:32.780Z,5.80
2018-07-26T20:08:02.955Z,8.03
2018-07-26T20:10:32.784Z,6.77
2018-07-26T20:13:02.837Z,4.20
2018-07-26T20:15:32.636Z,6.47
2018-07-26T20:18:02.301Z,7.40
2018-07-26T20:20:32.015Z,8.57
2018-07-26T20:23:01.734Z,7.77
2018-07-26T20:25:31.445Z,6.33
2018-07-26T20:28:01.311Z,6.20
2018-07-26T20:30:31.006Z,55.87
2018-07-26T20:33:00.746Z,5.73
2018-07-26T20:35:30.405Z,6.70
2018-07-26T20:38:03.051Z,7.00
2018-07-26T20:40:32.817Z,7.97
2018-07-26T20:43:02.858Z,5.80
2018-07-26T20:45:32.685Z,6.27
2018-07-26T20:48:02.566Z,9.40
2018-07-26T20:50:32.404Z,8.17
2018-07-26T20:53:02.329Z,6.30
2018-07-26T20:55:32.231Z,9.83
2018-07-26T20:58:02.106Z,9.20
2018-07-26T21:00:31.907Z,6.97
2018-07-26T21:03:02.066Z,5.63
2018-07-26T21:05:31.851Z,7.40
2018-07-26T21:08:02.339Z,6.53
2018-07-26T21:10:32.378Z,6.43
2018-07-26T21:13:02.810Z,7.93
2018-07-26T21:15:32.859Z,7.47
2018-07-26T21:18:02.558Z,5.63
2018-07-26T21:20:34.491Z,6.33
2018-07-26T21:23:04.301Z,10.37
2018-07-26T21:25:34.402Z,9.03
2018-07-26T21:28:05.426Z,7.80
2018-07-26T21:30:35.297Z,8.33
2018-07-26T21:33:05.045Z,6.87
2018-07-26T21:35:35.049Z,7.73
2018-07-26T21:38:04.834Z,7.60
2018-07-26T21:40:34.780Z,7.33
2018-07-26T21:43:04.364Z,7.73
2018-07-26T21:45:34.068Z,5.87
2018-07-26T21:48:04.492Z,6.07
2018-07-26T21:50:34.252Z,6.53
2018-07-26T21:53:04.113Z,5.03
2018-07-26T21:55:34.608Z,9.53
2018-07-26T21:58:04.710Z,7.13
2018-07-26T22:00:41.838Z,5.50
2018-07-26T22:03:11.810Z,6.23
2018-07-26T22:05:41.605Z,8.57
2018-07-26T22:08:11.398Z,7.57
2018-07-26T22:10:41.284Z,11.77
2018-07-26T22:13:11.124Z,5.80
2018-07-26T22:15:40.857Z,8.40
2018-07-26T22:18:10.580Z,6.50
2018-07-26T22:20:40.507Z,5.27
2018-07-26T22:23:10.297Z,9.10
2018-07-26T22:25:40.326Z,4.77
2018-07-26T22:28:10.049Z,12.10
2018-07-26T22:30:39.998Z,18.63
2018-07-26T22:33:10.327Z,14.63
2018-07-26T22:35:40.738Z,9.17
2018-07-26T22:38:10.898Z,7.90
2018-07-26T22:40:41.195Z,6.33
2018-07-26T22:43:11.029Z,5.93
2018-07-26T22:45:40.642Z,8.50
2018-07-26T22:48:10.408Z,10.20
2018-07-26T22:50:40.974Z,9.87
2018-07-26T22:53:10.942Z,9.70
2018-07-26T22:55:41.226Z,8.30
2018-07-26T22:58:10.862Z,7.00
2018-07-26T23:00:40.535Z,7.43
2018-07-26T23:03:10.139Z,5.97
2018-07-26T23:05:39.795Z,9.83
2018-07-26T23:08:09.605Z,7.30
2018-07-26T23:10:39.313Z,8.03
2018-07-26T23:13:09.720Z,7.33
2018-07-26T23:15:39.517Z,7.67
2018-07-26T23:18:09.745Z,6.57
2018-07-26T23:20:39.996Z,8.20
2018-07-26T23:23:09.775Z,5.60
2018-07-26T23:25:39.468Z,6.10
2018-07-26T23:28:09.224Z,7.20
2018-07-26T23:30:38.886Z,6.77
2018-07-26T23:33:08.617Z,10.47
2018-07-26T23:35:38.401Z,9.53
2018-07-26T23:38:08.154Z,8.83
2018-07-26T23:40:38.679Z,9.37
2018-07-26T23:43:08.384Z,8.67
2018-07-26T23:45:38.207Z,6.83
2018-07-26T23:48:07.901Z,8.40
2018-07-26T23:50:38.481Z,6.93
2018-07-26T23:53:08.120Z,6.60
2018-07-26T23:55:38.382Z,6.77
2018-07-26T23:58:08.011Z,7.03
